sensor_id;sensor_type;location;lat;lon;timestamp;P1;durP1;ratioP1;P2;durP2;ratioP2
48026;SDS011;50714;49.208;5.364;2023-08-07T00:07:45;2.00;;;1.30;;
48026;SDS011;50714;49.208;5.364;2023-08-07T00:17:45;1.55;;;0.98;;
48026;SDS011;50714;49.208;5.364;2023-08-07T00:27:45;2.55;;;1.10;;
48026;SDS011;50714;49.208;5.364;2023-08-07T00:37:46;1.30;;;1.13;;
48026;SDS011;50714;49.208;5.364;2023-08-07T00:47:46;2.10;;;1.08;;
48026;SDS011;50714;49.208;5.364;2023-08-07T00:57:46;2.85;;;1.20;;
48026;SDS011;50714;49.208;5.364;2023-08-07T01:07:47;1.35;;;1.05;;
48026;SDS011;50714;49.208;5.364;2023-08-07T01:17:48;1.42;;;0.88;;
48026;SDS011;50714;49.208;5.364;2023-08-07T01:27:52;2.03;;;1.10;;
48026;SDS011;50714;49.208;5.364;2023-08-07T01:37:56;1.33;;;1.05;;
48026;SDS011;50714;49.208;5.364;2023-08-07T01:47:57;1.55;;;1.00;;
48026;SDS011;50714;49.208;5.364;2023-08-07T01:57:59;2.28;;;1.10;;
48026;SDS011;50714;49.208;5.364;2023-08-07T02:07:59;1.23;;;1.00;;
48026;SDS011;50714;49.208;5.364;2023-08-07T02:18:00;1.05;;;0.90;;
48026;SDS011;50714;49.208;5.364;2023-08-07T02:28:00;1.40;;;0.90;;
48026;SDS011;50714;49.208;5.364;2023-08-07T02:38:00;1.27;;;0.95;;
48026;SDS011;50714;49.208;5.364;2023-08-07T02:48:01;1.52;;;0.95;;
48026;SDS011;50714;49.208;5.364;2023-08-07T02:58:02;0.90;;;0.80;;
48026;SDS011;50714;49.208;5.364;2023-08-07T03:08:02;2.75;;;0.90;;
48026;SDS011;50714;49.208;5.364;2023-08-07T03:18:03;1.70;;;0.90;;
48026;SDS011;50714;49.208;5.364;2023-08-07T03:28:03;1.98;;;0.90;;
48026;SDS011;50714;49.208;5.364;2023-08-07T03:38:04;1.80;;;0.90;;
48026;SDS011;50714;49.208;5.364;2023-08-07T03:48:04;2.10;;;1.20;;
48026;SDS011;50714;49.208;5.364;2023-08-07T03:58:04;1.90;;;1.38;;
48026;SDS011;50714;49.208;5.364;2023-08-07T04:08:05;1.67;;;1.10;;
48026;SDS011;50714;49.208;5.364;2023-08-07T04:18:05;3.95;;;1.50;;
48026;SDS011;50714;49.208;5.364;2023-08-07T04:28:05;1.75;;;1.38;;
48026;SDS011;50714;49.208;5.364;2023-08-07T04:38:06;2.58;;;1.35;;
48026;SDS011;50714;49.208;5.364;2023-08-07T04:48:07;1.60;;;1.20;;
48026;SDS011;50714;49.208;5.364;2023-08-07T04:58:08;3.88;;;1.42;;
48026;SDS011;50714;49.208;5.364;2023-08-07T05:08:08;2.00;;;1.33;;
48026;SDS011;50714;49.208;5.364;2023-08-07T05:18:08;2.40;;;1.60;;
48026;SDS011;50714;49.208;5.364;2023-08-07T05:28:09;2.80;;;1.33;;
48026;SDS011;50714;49.208;5.364;2023-08-07T05:38:09;1.58;;;1.40;;
48026;SDS011;50714;49.208;5.364;2023-08-07T05:48:09;2.20;;;1.33;;
48026;SDS011;50714;49.208;5.364;2023-08-07T05:58:09;2.55;;;1.60;;
48026;SDS011;50714;49.208;5.364;2023-08-07T06:08:10;2.40;;;1.50;;
48026;SDS011;50714;49.208;5.364;2023-08-07T06:18:10;2.42;;;1.40;;
48026;SDS011;50714;49.208;5.364;2023-08-07T06:28:10;2.13;;;1.58;;
48026;SDS011;50714;49.208;5.364;2023-08-07T06:38:11;2.03;;;1.40;;
48026;SDS011;50714;49.208;5.364;2023-08-07T06:48:11;2.28;;;1.27;;
48026;SDS011;50714;49.208;5.364;2023-08-07T06:58:11;3.05;;;1.33;;
48026;SDS011;50714;49.208;5.364;2023-08-07T07:08:12;1.98;;;1.30;;
48026;SDS011;50714;49.208;5.364;2023-08-07T07:18:12;1.45;;;1.20;;
48026;SDS011;50714;49.208;5.364;2023-08-07T07:28:13;1.50;;;1.20;;
48026;SDS011;50714;49.208;5.364;2023-08-07T07:38:13;2.78;;;1.50;;
48026;SDS011;50714;49.208;5.364;2023-08-07T07:48:15;2.83;;;1.33;;
48026;SDS011;50714;49.208;5.364;2023-08-07T07:58:15;1.63;;;1.10;;
48026;SDS011;50714;49.208;5.364;2023-08-07T08:08:16;1.67;;;1.20;;
48026;SDS011;50714;49.208;5.364;2023-08-07T08:18:16;1.98;;;1.30;;
48026;SDS011;50714;49.208;5.364;2023-08-07T08:28:17;1.40;;;1.20;;
48026;SDS011;50714;49.208;5.364;2023-08-07T08:38:18;1.80;;;1.23;;
48026;SDS011;50714;49.208;5.364;2023-08-07T08:48:20;2.33;;;1.20;;
48026;SDS011;50714;49.208;5.364;2023-08-07T08:58:23;2.17;;;1.20;;
48026;SDS011;50714;49.208;5.364;2023-08-07T09:08:27;2.03;;;1.27;;
48026;SDS011;50714;49.208;5.364;2023-08-07T09:18:30;2.22;;;1.48;;
48026;SDS011;50714;49.208;5.364;2023-08-07T09:28:31;1.98;;;1.45;;
48026;SDS011;50714;49.208;5.364;2023-08-07T09:38:32;1.85;;;1.30;;
48026;SDS011;50714;49.208;5.364;2023-08-07T09:48:42;1.77;;;1.30;;
48026;SDS011;50714;49.208;5.364;2023-08-07T09:58:47;1.40;;;1.10;;
48026;SDS011;50714;49.208;5.364;2023-08-07T10:08:50;1.23;;;1.00;;
48026;SDS011;50714;49.208;5.364;2023-08-07T10:18:51;1.65;;;0.70;;
48026;SDS011;50714;49.208;5.364;2023-08-07T10:28:51;0.45;;;0.40;;
48026;SDS011;50714;49.208;5.364;2023-08-07T10:39:05;0.75;;;0.73;;
48026;SDS011;50714;49.208;5.364;2023-08-07T10:49:07;0.97;;;0.60;;
48026;SDS011;50714;49.208;5.364;2023-08-07T10:59:08;0.88;;;0.60;;
48026;SDS011;50714;49.208;5.364;2023-08-07T11:09:12;0.60;;;0.60;;
48026;SDS011;50714;49.208;5.364;2023-08-07T11:19:13;1.27;;;0.75;;
48026;SDS011;50714;49.208;5.364;2023-08-07T11:29:16;0.80;;;0.50;;
48026;SDS011;50714;49.208;5.364;2023-08-07T11:39:17;0.95;;;0.52;;
48026;SDS011;50714;49.208;5.364;2023-08-07T11:49:19;0.40;;;0.32;;
48026;SDS011;50714;49.208;5.364;2023-08-07T11:59:20;0.50;;;0.32;;
48026;SDS011;50714;49.208;5.364;2023-08-07T12:09:20;0.98;;;0.52;;
48026;SDS011;50714;49.208;5.364;2023-08-07T12:19:21;0.45;;;0.35;;
48026;SDS011;50714;49.208;5.364;2023-08-07T12:29:21;0.40;;;0.40;;
48026;SDS011;50714;49.208;5.364;2023-08-07T12:39:21;0.65;;;0.60;;
48026;SDS011;50714;49.208;5.364;2023-08-07T12:49:21;0.40;;;0.40;;
48026;SDS011;50714;49.208;5.364;2023-08-07T12:59:24;0.45;;;0.43;;
48026;SDS011;50714;49.208;5.364;2023-08-07T13:09:24;0.80;;;0.70;;
48026;SDS011;50714;49.208;5.364;2023-08-07T13:19:24;0.70;;;0.60;;
48026;SDS011;50714;49.208;5.364;2023-08-07T13:29:25;0.63;;;0.63;;
48026;SDS011;50714;49.208;5.364;2023-08-07T13:39:29;0.40;;;0.30;;
48026;SDS011;50714;49.208;5.364;2023-08-07T13:49:29;0.57;;;0.50;;
48026;SDS011;50714;49.208;5.364;2023-08-07T13:59:30;0.93;;;0.55;;
48026;SDS011;50714;49.208;5.364;2023-08-07T14:09:30;0.38;;;0.38;;
48026;SDS011;50714;49.208;5.364;2023-08-07T14:19:31;0.52;;;0.47;;
48026;SDS011;50714;49.208;5.364;2023-08-07T14:29:31;0.52;;;0.40;;
48026;SDS011;50714;49.208;5.364;2023-08-07T14:39:31;0.70;;;0.40;;
48026;SDS011;50714;49.208;5.364;2023-08-07T14:49:32;0.40;;;0.40;;
48026;SDS011;50714;49.208;5.364;2023-08-07T14:59:32;0.22;;;0.22;;
48026;SDS011;50714;49.208;5.364;2023-08-07T15:09:32;0.40;;;0.40;;
48026;SDS011;50714;49.208;5.364;2023-08-07T15:19:33;0.40;;;0.40;;
48026;SDS011;50714;49.208;5.364;2023-08-07T15:29:33;0.70;;;0.50;;
48026;SDS011;50714;49.208;5.364;2023-08-07T15:39:33;0.57;;;0.57;;
48026;SDS011;50714;49.208;5.364;2023-08-07T15:49:34;0.90;;;0.43;;
48026;SDS011;50714;49.208;5.364;2023-08-07T15:59:34;1.15;;;0.70;;
48026;SDS011;50714;49.208;5.364;2023-08-07T16:09:34;0.60;;;0.40;;
48026;SDS011;50714;49.208;5.364;2023-08-07T16:19:35;0.65;;;0.50;;
48026;SDS011;50714;49.208;5.364;2023-08-07T16:29:35;1.05;;;0.55;;
48026;SDS011;50714;49.208;5.364;2023-08-07T16:39:35;0.88;;;0.60;;
48026;SDS011;50714;49.208;5.364;2023-08-07T16:49:36;0.57;;;0.47;;
48026;SDS011;50714;49.208;5.364;2023-08-07T16:59:36;0.50;;;0.50;;
48026;SDS011;50714;49.208;5.364;2023-08-07T17:09:36;0.55;;;0.55;;
48026;SDS011;50714;49.208;5.364;2023-08-07T17:19:37;0.60;;;0.60;;
48026;SDS011;50714;49.208;5.364;2023-08-07T17:29:37;0.90;;;0.50;;
48026;SDS011;50714;49.208;5.364;2023-08-07T17:39:37;0.45;;;0.45;;
48026;SDS011;50714;49.208;5.364;2023-08-07T17:49:38;0.95;;;0.52;;
48026;SDS011;50714;49.208;5.364;2023-08-07T17:59:40;0.75;;;0.40;;
48026;SDS011;50714;49.208;5.364;2023-08-07T18:09:40;0.77;;;0.50;;
48026;SDS011;50714;49.208;5.364;2023-08-07T18:19:41;0.50;;;0.50;;
48026;SDS011;50714;49.208;5.364;2023-08-07T18:29:41;0.63;;;0.57;;
48026;SDS011;50714;49.208;5.364;2023-08-07T18:39:41;0.77;;;0.70;;
48026;SDS011;50714;49.208;5.364;2023-08-07T18:49:42;0.60;;;0.60;;
48026;SDS011;50714;49.208;5.364;2023-08-07T18:59:42;0.52;;;0.50;;
48026;SDS011;50714;49.208;5.364;2023-08-07T19:09:43;0.73;;;0.60;;
48026;SDS011;50714;49.208;5.364;2023-08-07T19:19:44;1.48;;;0.63;;
48026;SDS011;50714;49.208;5.364;2023-08-07T19:29:44;0.90;;;0.50;;
48026;SDS011;50714;49.208;5.364;2023-08-07T19:39:45;0.70;;;0.70;;
48026;SDS011;50714;49.208;5.364;2023-08-07T19:49:45;1.35;;;0.65;;
48026;SDS011;50714;49.208;5.364;2023-08-07T19:59:47;0.63;;;0.50;;
48026;SDS011;50714;49.208;5.364;2023-08-07T20:09:47;0.70;;;0.63;;
48026;SDS011;50714;49.208;5.364;2023-08-07T20:19:47;0.60;;;0.52;;
48026;SDS011;50714;49.208;5.364;2023-08-07T20:29:48;1.33;;;0.77;;
48026;SDS011;50714;49.208;5.364;2023-08-07T20:39:48;0.93;;;0.80;;
48026;SDS011;50714;49.208;5.364;2023-08-07T20:49:49;1.13;;;0.70;;
48026;SDS011;50714;49.208;5.364;2023-08-07T20:59:49;1.65;;;0.93;;
48026;SDS011;50714;49.208;5.364;2023-08-07T21:09:49;0.70;;;0.70;;
48026;SDS011;50714;49.208;5.364;2023-08-07T21:19:50;2.33;;;0.77;;
48026;SDS011;50714;49.208;5.364;2023-08-07T21:29:50;2.28;;;0.90;;
48026;SDS011;50714;49.208;5.364;2023-08-07T21:39:50;1.15;;;0.77;;
48026;SDS011;50714;49.208;5.364;2023-08-07T21:49:51;0.65;;;0.60;;
48026;SDS011;50714;49.208;5.364;2023-08-07T21:59:51;0.77;;;0.70;;
48026;SDS011;50714;49.208;5.364;2023-08-07T22:09:51;0.80;;;0.70;;
48026;SDS011;50714;49.208;5.364;2023-08-07T22:19:52;0.80;;;0.60;;
48026;SDS011;50714;49.208;5.364;2023-08-07T22:29:52;1.50;;;0.75;;
48026;SDS011;50714;49.208;5.364;2023-08-07T22:39:52;0.82;;;0.70;;
48026;SDS011;50714;49.208;5.364;2023-08-07T22:49:53;1.02;;;0.70;;
48026;SDS011;50714;49.208;5.364;2023-08-07T22:59:53;1.75;;;1.00;;
48026;SDS011;50714;49.208;5.364;2023-08-07T23:09:54;1.00;;;0.68;;
48026;SDS011;50714;49.208;5.364;2023-08-07T23:19:54;1.83;;;0.63;;
48026;SDS011;50714;49.208;5.364;2023-08-07T23:29:54;1.02;;;0.80;;
48026;SDS011;50714;49.208;5.364;2023-08-07T23:39:55;3.17;;;0.90;;
48026;SDS011;50714;49.208;5.364;2023-08-07T23:49:55;0.70;;;0.70;;
48026;SDS011;50714;49.208;5.364;2023-08-07T23:59:56;1.00;;;0.88;;
